This demonstration page uses our WeatherBlox Daily Observations layout. Learn more.

Left ArrowRight Arrow

39.92423, -83.80882

Hourly Observations for May 9, 2018

Temp ( °F °C ) Dew Point ( °F °C ) Humidity (%) Winds ( mph kmh ) Pressure ( in mb ) Visibility ( mi km ) Precip ( " mm )
3:56 am 03:56 Mostly Clear 54 12.2 51 10.6 90 90 E 3 6 30.04 1017 10 16.0934 0 0
4:56 am 04:56 Partly Cloudy 54 12.2 51 10.6 90 90 Calm 30.04 1017 10 16.0934 0 0
5:56 am 05:56 Mostly Cloudy 54 12.2 51 10.6 90 90 WNW 3 6 30.04 1017 10 16.0934 0 0
6:56 am 06:56 Cloudy 54 12.2 51 10.6 90 90 E 3 6 30.04 1017 10 16.0934 0 0
7:56 am 07:56 Mostly Cloudy 61 16.1 54 12.2 78 78 SSE 5 7 30.04 1017 10 16.0934 0.01 0.254
8:56 am 08:56 Mostly Sunny 68 20 54 12.2 61 61 S 6 9 30.03 1017 10 16.0934 0 0
9:56 am 09:56 Sunny 72 22.2 54 12.2 53 53 S 7 11 30.01 1016 10 16.0934 0 0
10:56 am 10:56 Sunny 76 24.4 53 11.7 45 45 SSW 16 26 30.01 1016 10 16.0934 0 0
11:56 am 11:56 Sunny 77 25 51 10.6 40 40 SW 18 30 30 1016 10 16.0934 0 0
12:56 pm 12:56 Mostly Cloudy 78 25.6 51 10.6 39 39 SSW 14 22 29.98 1015 10 16.0934 0 0
1:56 pm 13:56 Sunny 81 27.2 51 10.6 35 35 S 14 22 29.95 1014 10 16.0934 0 0
2:56 pm 14:56 Sunny 82 27.8 54 12.2 38 38 SW 14 22 29.92 1013 10 16.0934 0 0
3:56 pm 15:56 Mostly Cloudy 81 27.2 55 12.8 41 41 SSW 14 22 29.9 1013 10 16.0934 0 0
4:56 pm 16:56 Sunny 79 26.1 57 13.9 47 47 S 17 28 29.88 1012 10 16.0934 0 0
5:56 pm 17:56 Sunny 78 25.6 58 14.4 50 50 S 13 20 29.87 1012 10 16.0934 0 0
6:56 pm 18:56 Sunny 77 25 58 14.4 52 52 SSW 13 20 29.86 1011 10 16.0934 0 0
7:56 pm 19:56 Mostly Cloudy 74 23.3 59 15 60 60 S 12 19 29.84 1010 10 16.0934 0 0
8:56 pm 20:56 Mostly Clear 74 23.3 59 15 60 60 SSW 12 19 29.83 1010 9 14.48406 0 0
9:56 pm 21:56 Mostly Clear 72 22.2 58 14.4 61 61 S 14 22 29.83 1010 10 16.0934 0 0
10:56 pm 22:56 Partly Cloudy 72 22.2 59 15 64 64 S 14 22 29.83 1010 10 16.0934 0 0
11:56 pm 23:56 Clear 72 22.2 58 14.4 61 61 S 15 24 29.81 1010 10 16.0934 0 0

Powered by AerisWeather